Terminal Aerodrome Forecast
Issued by NWS

Current Version | Previous Version | Text Only | Print | Product List | Glossary On
Versions: 1 2 3 4 5 6 7 8 9 10 11 12 13 14 15 16 17
000
FTUS43 KAPX 261734
TAFAPN
TAF
KAPN 261734Z 2618/2718 20007KT P6SM SCT011 OVC019
     FM262300 VRB03KT P6SM OVC022
     FM270400 15005KT 3SM BR OVC008
     FM271100 17006KT 3SM -FZDZ BR OVC005
     FM271500 19007KT 5SM -RA BR OVC015=

USA.gov is the U.S. government's official web portal to all federal, state and local government web resources and services.